ADDS METAR Data INFO
IDs: Format: Raw Decoded Include TAF

Data at: 1921 UTC 23 Apr 2018

KMGC 231915Z AUTO 35005KT 10SM CLR 15/02 A3010 RMK AO2
KMGC 231855Z AUTO 35006KT 10SM CLR 16/02 A3010 RMK AO2
KMGC 231835Z AUTO 34007KT 10SM CLR 16/02 A3011 RMK AO2
KMGC 231815Z AUTO 33005KT 10SM CLR 17/03 A3011 RMK AO2
KMGC 231755Z AUTO 34007KT 10SM CLR 18/03 A3011 RMK AO2
KMGC 231735Z AUTO 05005KT 10SM CLR 18/02 A3012 RMK AO2
KMGC 231715Z AUTO 06004KT 10SM CLR 18/02 A3013 RMK AO2
KMGC 231635Z AUTO 07005KT 10SM CLR 17/01 A3015 RMK AO2
KMGC 231615Z AUTO 07005KT 10SM CLR 17/01 A3015 RMK AO2
KMGC 231555Z AUTO 07005KT 10SM CLR 16/00 A3016 RMK AO2
KMGC 231535Z AUTO 06007KT 10SM CLR 15/00 A3017 RMK AO2
KMGC 231515Z AUTO 05005KT 10SM CLR 15/00 A3017 RMK AO2
KMGC 231455Z AUTO 00000KT 10SM CLR 14/00 A3018 RMK AO2
KMGC 231435Z AUTO 09004KT 10SM CLR 13/M01 A3018 RMK AO2
KMGC 231415Z AUTO 00000KT 10SM CLR 12/M01 A3018 RMK AO2
KMGC 231355Z AUTO 06005KT 10SM CLR 11/M01 A3018 RMK AO2
KMGC 231335Z AUTO 06007KT 10SM CLR 11/M02 A3018 RMK AO2
KMGC 231315Z AUTO 06004KT 10SM CLR 09/M02 A3019 RMK AO2
KMGC 231255Z AUTO 08003KT 10SM CLR 08/M02 A3020 RMK AO2
KMGC 231235Z AUTO 06005KT 10SM CLR 07/M03 A3020 RMK AO2
KMGC 231215Z AUTO 06004KT 10SM CLR 06/M03 A3021 RMK AO2
KMGC 231155Z AUTO 06004KT 10SM CLR 06/M03 A3021 RMK AO2
KMGC 231135Z AUTO 06003KT 10SM CLR 05/M03 A3021 RMK AO2
KMGC 231115Z AUTO 03003KT 10SM CLR 03/M03 A3020 RMK AO2
KMGC 231055Z AUTO 00000KT 10SM CLR 04/M03 A3020 RMK AO2
KMGC 231035Z AUTO 00000KT 10SM CLR 05/M03 A3020 RMK AO2
KMGC 231015Z AUTO 00000KT 10SM CLR 05/M05 A3020 RMK AO2
KMGC 230955Z AUTO 06003KT 10SM CLR 06/M05 A3021 RMK AO2
KMGC 230935Z AUTO 00000KT 10SM CLR 06/M05 A3021 RMK AO2
KMGC 230915Z AUTO 00000KT 10SM CLR 06/M05 A3021 RMK AO2
KMGC 230855Z AUTO 00000KT 10SM CLR 06/M05 A3020 RMK AO2
KMGC 230835Z AUTO 00000KT 10SM CLR 06/M05 A3020 RMK AO2
KMGC 230815Z AUTO 07003KT 10SM CLR 07/M06 A3020 RMK AO2
KMGC 230755Z AUTO 09003KT 10SM CLR 07/M06 A3020 RMK AO2
KMGC 230735Z AUTO 10003KT 10SM CLR 08/M06 A3021 RMK AO2
KMGC 230715Z AUTO 09003KT 10SM CLR 08/M06 A3021 RMK AO2
KMGC 230655Z AUTO 08004KT 10SM CLR 08/M06 A3022 RMK AO2
KMGC 230635Z AUTO 09003KT 10SM CLR 08/M07 A3022 RMK AO2
KMGC 230615Z AUTO 09003KT 10SM CLR 08/M07 A3023 RMK AO2
KMGC 230555Z AUTO 08003KT 10SM CLR 08/M06 A3024 RMK AO2
KMGC 230535Z AUTO 08003KT 10SM CLR 08/M06 A3024 RMK AO2
KMGC 230515Z AUTO 07003KT 10SM CLR 09/M06 A3024 RMK AO2
KMGC 230455Z AUTO 10003KT 10SM CLR 09/M06 A3025 RMK AO2
KMGC 230435Z AUTO 08003KT 10SM CLR 10/M06 A3025 RMK AO2
KMGC 230415Z AUTO 07004KT 10SM CLR 09/M05 A3024 RMK AO2
KMGC 230355Z AUTO 09004KT 10SM CLR 10/M05 A3025 RMK AO2
KMGC 230335Z AUTO 07003KT 10SM CLR 10/M04 A3025 RMK AO2
KMGC 230315Z AUTO 09003KT 10SM CLR 10/M04 A3026 RMK AO2
KMGC 230255Z AUTO 09003KT 10SM CLR 11/M04 A3027 RMK AO2
KMGC 230235Z AUTO 07003KT 10SM CLR 06/00 A3027 RMK AO2
KMGC 230215Z AUTO 06003KT 10SM CLR 05/01 A3027 RMK AO2
KMGC 230155Z AUTO 03003KT 10SM CLR 06/01 A3027 RMK AO2
KMGC 230135Z AUTO 01004KT 10SM CLR 06/01 A3027 RMK AO2
KMGC 230115Z AUTO 36003KT 10SM CLR 06/01 A3027 RMK AO2
KMGC 230055Z AUTO 34003KT 10SM CLR 06/01 A3026 RMK AO2
KMGC 230035Z AUTO 35004KT 10SM CLR 08/01 A3026 RMK AO2
KMGC 230015Z AUTO 00000KT 10SM CLR 08/01 A3025 RMK AO2
KMGC 222355Z AUTO 34003KT 10SM CLR 11/01 A3025 RMK AO2
KMGC 222335Z AUTO 04006KT 10SM CLR 16/M01 A3024 RMK AO2
KMGC 222315Z AUTO 11005KT 10SM CLR 17/M02 A3024 RMK AO2
KMGC 222255Z AUTO 00000KT 10SM CLR 17/M02 A3024 RMK AO2
KMGC 222235Z AUTO 28003KT 10SM CLR 15/00 A3024 RMK AO2
KMGC 222215Z AUTO 00000KT 10SM CLR 15/00 A3025 RMK AO2
KMGC 222155Z AUTO 05004KT 10SM CLR 15/M01 A3025 RMK AO2
KMGC 222135Z AUTO 08005KT 10SM CLR 17/M03 A3025 RMK AO2
KMGC 222115Z AUTO 10007KT 040V150 10SM CLR 18/M03 A3025 RMK AO2
KMGC 222055Z AUTO 07005KT 10SM CLR 18/M03 A3026 RMK AO2
KMGC 222035Z AUTO 09007KT 050V120 10SM CLR 17/M04 A3026 RMK AO2
KMGC 221955Z AUTO 07007G15KT 10SM CLR 17/M03 A3027 RMK AO2
KMGC 221935Z AUTO 09009G15KT 050V130 10SM CLR 17/M03 A3028 RMK AO2
KMGC 221915Z AUTO 07008KT 040V110 10SM CLR 18/M02 A3029 RMK AO2
KMGC 221855Z AUTO 10008G15KT 060V140 10SM CLR 18/M03 A3030 RMK AO2
KMGC 221835Z AUTO 09005G14KT 10SM CLR 17/M03 A3031 RMK AO2
KMGC 221815Z AUTO 09008KT 060V130 10SM CLR 17/M03 A3031 RMK AO2
KMGC 221755Z AUTO 06009G15KT 040V100 10SM CLR 17/M02 A3032 RMK AO2
KMGC 221735Z AUTO 08008KT 10SM CLR 16/M03 A3032 RMK AO2
KMGC 221715Z AUTO 07012G16KT 10SM CLR 16/M03 A3033 RMK AO2
KMGC 221655Z AUTO 09010G14KT 040V110 10SM CLR 16/M02 A3034 RMK AO2
KMGC 221635Z AUTO 10006KT 10SM CLR 15/M03 A3035 RMK AO2
KMGC 221615Z AUTO 10006G15KT 10SM CLR 15/M04 A3035 RMK AO2
KMGC 221555Z AUTO 10009G16KT 10SM CLR 15/M05 A3036 RMK AO2
KMGC 221535Z AUTO 08006G16KT 10SM CLR 13/M05 A3036 RMK AO2
KMGC 221515Z AUTO 12006KT 10SM CLR 13/M04 A3037 RMK AO2
KMGC 221455Z AUTO 09007KT 070V130 10SM CLR 12/M04 A3037 RMK AO2
KMGC 221435Z AUTO 12007KT 070V140 10SM CLR 12/M04 A3037 RMK AO2
KMGC 221415Z AUTO 11005KT 10SM CLR 11/M05 A3037 RMK AO2
KMGC 221355Z AUTO 10005KT 10SM CLR 11/M05 A3037 RMK AO2
KMGC 221335Z AUTO 08003KT 10SM CLR 10/M05 A3037 RMK AO2
KMGC 221315Z AUTO 00000KT 10SM CLR 09/M05 A3038 RMK AO2
KMGC 221255Z AUTO 00000KT 10SM CLR 08/M05 A3037 RMK AO2
KMGC 221235Z AUTO 00000KT 10SM CLR 07/M05 A3037 RMK AO2
KMGC 221215Z AUTO 00000KT 10SM CLR 07/M04 A3037 RMK AO2
KMGC 221155Z AUTO 07003KT 10SM CLR 06/M05 A3037 RMK AO2
KMGC 221135Z AUTO 05003KT 10SM CLR 06/M03 A3035 RMK AO2
KMGC 221115Z AUTO 04005KT 10SM CLR 05/M02 A3035 RMK AO2
KMGC 221055Z AUTO 05003KT 10SM CLR 04/00 A3035 RMK AO2
KMGC 221035Z AUTO 00000KT 10SM CLR 04/00 A3035 RMK AO2
KMGC 221015Z AUTO 08003KT 10SM CLR 04/00 A3035 RMK AO2
KMGC 220955Z AUTO 00000KT 10SM CLR 03/00 A3036 RMK AO2
KMGC 220935Z AUTO 00000KT 10SM SCT120 03/00 A3035 RMK AO2
KMGC 220915Z AUTO 00000KT 10SM BKN120 03/00 A3036 RMK AO2
KMGC 220855Z AUTO 00000KT 10SM OVC120 03/00 A3035 RMK AO2
KMGC 220835Z AUTO 00000KT 10SM BKN120 02/00 A3036 RMK AO2
KMGC 220815Z AUTO 00000KT 10SM SCT120 03/00 A3035 RMK AO2
KMGC 220755Z AUTO 00000KT 10SM SCT120 03/M01 A3035 RMK AO2
KMGC 220735Z AUTO 00000KT 10SM OVC120 03/M01 A3035 RMK AO2